createdAt,value
2022-08-03T00:01:44.465Z,25.50
2022-08-03T00:04:12.452Z,25.47
2022-08-03T00:06:40.258Z,25.42
2022-08-03T00:09:08.346Z,25.42
2022-08-03T00:11:36.635Z,25.39
2022-08-03T00:14:06.992Z,25.36
2022-08-03T00:16:34.762Z,25.31
2022-08-03T00:19:03.194Z,25.29
2022-08-03T00:21:31.042Z,25.24
2022-08-03T00:23:58.622Z,25.20
2022-08-03T00:26:26.200Z,25.12
2022-08-03T00:28:54.116Z,25.10
2022-08-03T00:31:39.724Z,25.07
2022-08-03T00:34:10.130Z,25.01
2022-08-03T00:36:40.325Z,24.96
2022-08-03T00:39:07.939Z,24.94
2022-08-03T00:41:35.652Z,24.90
2022-08-03T00:44:03.297Z,24.86
2022-08-03T00:46:30.837Z,24.82
2022-08-03T00:48:58.630Z,24.79
2022-08-03T00:51:26.238Z,24.76
2022-08-03T00:53:53.815Z,24.74
2022-08-03T00:56:21.725Z,24.72
2022-08-03T00:58:49.590Z,24.69
2022-08-03T01:01:17.179Z,24.68
2022-08-03T01:03:45.533Z,24.66
2022-08-03T01:06:18.408Z,24.65
2022-08-03T01:09:14.619Z,24.62
2022-08-03T01:12:10.725Z,24.58
2022-08-03T01:14:51.944Z,24.56
2022-08-03T01:17:34.488Z,24.54
2022-08-03T01:20:10.671Z,24.55
2022-08-03T01:23:16.449Z,24.54
2022-08-03T01:26:11.405Z,24.55
2022-08-03T01:29:00.880Z,24.57
2022-08-03T01:33:00.249Z,24.63
2022-08-03T01:35:26.169Z,24.65
2022-08-03T01:38:05.970Z,24.66
2022-08-03T01:40:36.751Z,24.70
2022-08-03T01:43:07.017Z,24.72
2022-08-03T01:45:36.101Z,24.74
2022-08-03T01:48:05.173Z,24.74
2022-08-03T01:50:34.453Z,24.75
2022-08-03T01:53:03.557Z,24.79
2022-08-03T01:55:33.338Z,24.76
2022-08-03T01:58:06.295Z,24.74
2022-08-03T02:00:38.695Z,24.75
2022-08-03T02:03:08.693Z,24.76
2022-08-03T02:05:38.596Z,24.76
2022-08-03T02:08:09.054Z,24.80
2022-08-03T02:10:40.478Z,24.80
2022-08-03T02:13:10.329Z,24.80
2022-08-03T02:15:39.357Z,24.77
2022-08-03T02:18:10.748Z,24.73
2022-08-03T02:20:43.110Z,24.69
2022-08-03T02:23:11.022Z,24.66
2022-08-03T02:26:04.659Z,24.64
2022-08-03T02:28:40.137Z,24.66
2022-08-03T02:31:22.883Z,24.65
2022-08-03T02:33:54.669Z,24.63
2022-08-03T02:36:35.005Z,24.58
2022-08-03T02:39:05.163Z,24.48
2022-08-03T02:41:43.482Z,24.35
2022-08-03T02:44:13.857Z,24.22
2022-08-03T02:46:49.265Z,24.14
2022-08-03T02:49:40.995Z,24.12
2022-08-03T02:52:13.083Z,24.15
2022-08-03T02:54:41.811Z,24.20
2022-08-03T02:57:11.406Z,24.22
2022-08-03T02:59:40.254Z,24.27
2022-08-03T03:02:07.982Z,24.27
2022-08-03T03:04:36.546Z,24.23
2022-08-03T03:07:04.548Z,24.21
2022-08-03T03:09:41.809Z,24.14
2022-08-03T03:12:13.609Z,24.07
2022-08-03T03:14:41.862Z,24.02
2022-08-03T03:17:11.469Z,23.94
2022-08-03T03:19:40.978Z,23.83
2022-08-03T03:22:09.347Z,23.73
2022-08-03T03:24:37.963Z,23.68
2022-08-03T03:27:05.988Z,23.70
2022-08-03T03:29:36.542Z,23.70
2022-08-03T03:32:09.161Z,23.66
2022-08-03T03:34:37.309Z,23.65
2022-08-03T03:37:05.327Z,23.58
2022-08-03T03:39:32.945Z,23.56
2022-08-03T03:42:01.157Z,23.53
2022-08-03T03:44:31.885Z,23.57
2022-08-03T03:46:59.533Z,23.63
2022-08-03T03:49:27.672Z,23.70
2022-08-03T03:51:55.863Z,23.77
2022-08-03T03:54:25.302Z,23.78
2022-08-03T03:56:53.376Z,23.76
2022-08-03T03:59:20.869Z,23.75
2022-08-03T04:01:48.781Z,23.75
2022-08-03T04:04:45.843Z,23.77
2022-08-03T04:07:31.749Z,23.81
2022-08-03T04:10:18.694Z,23.79
2022-08-03T04:12:50.312Z,23.77
2022-08-03T04:15:22.801Z,23.75
2022-08-03T04:17:53.862Z,23.76
2022-08-03T04:20:23.099Z,23.81
2022-08-03T04:22:51.429Z,23.87
2022-08-03T04:25:21.055Z,23.86
2022-08-03T04:28:07.990Z,23.90
2022-08-03T04:30:47.591Z,23.95
2022-08-03T04:33:17.671Z,23.99
2022-08-03T04:36:01.741Z,24.04
2022-08-03T04:38:33.561Z,24.07
2022-08-03T04:41:01.969Z,24.12
2022-08-03T04:43:32.919Z,24.14
2022-08-03T04:46:02.677Z,24.15
2022-08-03T04:48:30.369Z,24.12
2022-08-03T04:50:58.056Z,24.10
2022-08-03T04:53:25.833Z,24.12
2022-08-03T04:55:53.325Z,24.20
2022-08-03T04:58:21.034Z,24.20
2022-08-03T05:00:51.362Z,24.22
2022-08-03T05:03:23.652Z,24.29
2022-08-03T05:06:01.715Z,24.36
2022-08-03T05:08:46.818Z,24.45
2022-08-03T05:11:16.869Z,24.54
2022-08-03T05:13:45.800Z,24.62
2022-08-03T05:16:14.095Z,24.67
2022-08-03T05:18:43.158Z,24.71
2022-08-03T05:21:12.479Z,24.68
2022-08-03T05:23:40.500Z,24.67
2022-08-03T05:26:08.315Z,24.66
2022-08-03T05:28:35.776Z,24.71
2022-08-03T05:31:03.408Z,24.77
2022-08-03T05:33:31.536Z,24.83
2022-08-03T05:36:03.512Z,24.90
2022-08-03T05:38:34.979Z,24.94
2022-08-03T05:41:21.457Z,24.96
2022-08-03T05:43:53.867Z,24.86
2022-08-03T05:46:23.198Z,24.76
2022-08-03T05:48:50.923Z,24.77
2022-08-03T05:51:18.745Z,24.78
2022-08-03T05:53:46.449Z,24.88
2022-08-03T05:56:16.208Z,24.94
2022-08-03T05:58:46.887Z,25.00
2022-08-03T06:01:16.762Z,25.04
2022-08-03T06:03:46.095Z,25.09
2022-08-03T06:06:17.300Z,25.15
2022-08-03T06:08:46.193Z,25.22
2022-08-03T06:11:14.245Z,25.26
2022-08-03T06:13:41.999Z,25.24
2022-08-03T06:16:10.241Z,25.21
2022-08-03T06:18:40.529Z,25.17
2022-08-03T06:21:14.217Z,25.18
2022-08-03T06:23:54.257Z,25.23
2022-08-03T06:26:25.424Z,25.24
2022-08-03T06:28:54.518Z,25.30
2022-08-03T06:31:25.804Z,25.37
2022-08-03T06:34:32.771Z,25.44
2022-08-03T06:36:41.126Z,25.49
2022-08-03T06:39:09.379Z,25.44
2022-08-03T06:41:38.137Z,25.48
2022-08-03T06:44:09.210Z,25.56
2022-08-03T06:46:38.216Z,25.55
2022-08-03T06:49:07.293Z,25.60
2022-08-03T06:52:04.357Z,25.68
2022-08-03T06:54:24.426Z,25.77
2022-08-03T06:56:52.063Z,25.85
2022-08-03T07:00:10.528Z,25.93
2022-08-03T07:02:09.779Z,25.98
2022-08-03T07:04:37.926Z,26.04
2022-08-03T07:07:05.436Z,26.10
2022-08-03T07:09:33.727Z,26.15
2022-08-03T07:12:02.413Z,26.15
2022-08-03T07:14:29.862Z,26.18
2022-08-03T07:16:58.887Z,26.21
2022-08-03T07:19:26.320Z,26.21
2022-08-03T07:21:53.801Z,26.23
2022-08-03T07:24:26.143Z,26.28
2022-08-03T07:26:56.017Z,26.36
2022-08-03T07:29:23.508Z,26.43
2022-08-03T07:31:51.229Z,26.49
2022-08-03T07:34:18.808Z,26.56
2022-08-03T07:36:46.442Z,26.67
2022-08-03T07:39:15.921Z,26.77
2022-08-03T07:41:46.310Z,26.87
2022-08-03T07:44:14.198Z,26.95
2022-08-03T07:46:42.024Z,26.98
2022-08-03T07:49:10.737Z,27.04
2022-08-03T07:51:38.276Z,27.10
2022-08-03T07:54:06.217Z,27.17
2022-08-03T07:56:34.878Z,27.24
2022-08-03T07:59:03.034Z,27.30
2022-08-03T08:01:32.859Z,27.33
2022-08-03T08:04:00.497Z,27.37
2022-08-03T08:06:27.960Z,27.40
2022-08-03T08:08:59.595Z,27.46
2022-08-03T08:11:27.125Z,27.46
2022-08-03T08:13:54.624Z,27.51
2022-08-03T08:16:22.401Z,27.57
2022-08-03T08:18:49.895Z,27.67
2022-08-03T08:21:17.535Z,27.70
2022-08-03T08:23:48.631Z,27.72
2022-08-03T08:26:27.844Z,27.71
2022-08-03T08:28:55.704Z,27.72
2022-08-03T08:31:23.141Z,27.74
2022-08-03T08:34:05.924Z,27.81
2022-08-03T08:36:35.401Z,27.91
2022-08-03T08:39:03.411Z,28.01
2022-08-03T08:41:33.884Z,28.08
2022-08-03T08:44:02.778Z,28.19
2022-08-03T08:46:34.125Z,28.23
2022-08-03T08:49:03.797Z,28.30
2022-08-03T08:51:54.465Z,28.36
2022-08-03T08:54:26.964Z,28.46
2022-08-03T08:56:59.379Z,28.54
2022-08-03T08:59:27.912Z,28.55
2022-08-03T09:02:15.649Z,28.58
2022-08-03T09:04:45.600Z,28.62
2022-08-03T09:07:20.155Z,28.67
2022-08-03T09:10:12.495Z,28.73
2022-08-03T09:12:43.790Z,28.83
2022-08-03T09:15:31.284Z,28.92
2022-08-03T09:18:03.835Z,29.00
2022-08-03T09:20:35.110Z,29.07
2022-08-03T09:23:58.914Z,29.14
2022-08-03T09:26:01.796Z,29.20
2022-08-03T09:29:00.060Z,29.27
2022-08-03T09:31:37.826Z,29.32
2022-08-03T09:34:10.745Z,29.36
2022-08-03T09:36:46.911Z,29.41
2022-08-03T09:39:19.959Z,29.49
2022-08-03T09:42:14.922Z,29.59
2022-08-03T09:44:48.098Z,29.65
2022-08-03T09:47:37.566Z,29.74
2022-08-03T09:50:13.057Z,29.86
2022-08-03T09:52:52.133Z,29.94
2022-08-03T09:56:05.081Z,29.99
2022-08-03T09:58:10.532Z,30.03
2022-08-03T10:00:58.221Z,30.06
2022-08-03T10:03:29.269Z,30.03
2022-08-03T10:06:00.038Z,30.02
2022-08-03T10:08:28.393Z,30.04
2022-08-03T10:10:58.000Z,30.10
2022-08-03T10:13:25.494Z,30.13
2022-08-03T10:16:23.398Z,30.14
2022-08-03T10:18:40.799Z,30.21
2022-08-03T10:21:13.219Z,30.30
2022-08-03T10:23:41.992Z,30.27
2022-08-03T10:26:16.316Z,30.28
2022-08-03T10:28:53.974Z,30.30
2022-08-03T10:31:23.887Z,30.30
2022-08-03T10:33:56.335Z,30.35
2022-08-03T10:36:27.176Z,30.36
2022-08-03T10:38:57.267Z,30.40
2022-08-03T10:41:31.472Z,30.47
2022-08-03T10:44:18.402Z,30.56
2022-08-03T10:46:48.865Z,30.66
2022-08-03T10:49:34.711Z,30.75
2022-08-03T10:52:13.015Z,30.84
2022-08-03T10:55:07.520Z,30.83
2022-08-03T10:57:58.531Z,30.85
2022-08-03T11:00:30.106Z,30.89
2022-08-03T11:03:14.608Z,30.98
2022-08-03T11:05:49.146Z,31.01
2022-08-03T11:08:36.973Z,31.07
2022-08-03T11:11:19.795Z,31.08
2022-08-03T11:14:13.304Z,31.16
2022-08-03T11:16:45.227Z,31.25
2022-08-03T11:19:20.018Z,31.38
2022-08-03T11:21:51.394Z,31.50
2022-08-03T11:24:37.194Z,31.62
2022-08-03T11:27:19.811Z,31.71
2022-08-03T11:30:01.294Z,31.81
2022-08-03T11:32:38.253Z,31.90
2022-08-03T11:35:24.749Z,31.99
2022-08-03T11:38:04.530Z,32.05
2022-08-03T11:40:51.188Z,32.11
2022-08-03T11:43:31.773Z,32.12
2022-08-03T11:46:29.648Z,32.20
2022-08-03T11:49:10.485Z,32.27
2022-08-03T11:51:40.660Z,32.42
2022-08-03T11:54:08.765Z,32.44
2022-08-03T11:56:50.404Z,32.53
2022-08-03T11:59:22.170Z,32.62
2022-08-03T12:01:51.008Z,32.76
2022-08-03T12:04:18.987Z,32.79
2022-08-03T12:07:01.833Z,32.87
2022-08-03T12:09:29.658Z,32.97
2022-08-03T12:12:00.523Z,33.09
2022-08-03T12:14:48.455Z,33.16
2022-08-03T12:17:18.714Z,33.12
2022-08-03T12:19:46.559Z,33.13
2022-08-03T12:22:15.874Z,33.16
2022-08-03T12:24:46.915Z,33.07
2022-08-03T12:27:25.382Z,33.03
2022-08-03T12:29:58.920Z,33.07
2022-08-03T12:32:29.615Z,33.08
2022-08-03T12:35:04.529Z,33.16
2022-08-03T12:37:32.520Z,33.17
2022-08-03T12:40:10.091Z,33.20
2022-08-03T12:42:40.056Z,33.28
2022-08-03T12:45:32.592Z,33.44
2022-08-03T12:48:10.193Z,33.60
2022-08-03T12:50:39.820Z,33.73
2022-08-03T12:53:09.788Z,33.84
2022-08-03T12:55:57.154Z,34.00
2022-08-03T12:58:34.122Z,34.06
2022-08-03T13:01:09.900Z,34.14
2022-08-03T13:03:50.415Z,34.15
2022-08-03T13:06:25.639Z,34.21
2022-08-03T13:09:10.224Z,34.24
2022-08-03T13:11:57.332Z,34.32
2022-08-03T13:14:26.178Z,34.41
2022-08-03T13:16:53.823Z,34.47
2022-08-03T13:19:21.375Z,34.52
2022-08-03T13:22:02.140Z,34.45
2022-08-03T13:24:33.155Z,34.53
2022-08-03T13:27:22.096Z,34.60
2022-08-03T13:29:50.988Z,34.63
2022-08-03T13:32:18.755Z,34.69
2022-08-03T13:34:46.854Z,34.77
2022-08-03T13:37:14.843Z,34.83
2022-08-03T13:39:57.225Z,34.91
2022-08-03T13:42:29.831Z,35.00
2022-08-03T13:44:58.014Z,34.97
2022-08-03T13:47:26.035Z,34.97
2022-08-03T13:50:01.031Z,35.03
2022-08-03T13:52:35.071Z,35.07
2022-08-03T13:55:06.473Z,35.17
2022-08-03T13:58:03.796Z,35.25
2022-08-03T14:00:28.913Z,35.13
2022-08-03T14:03:06.726Z,35.17
2022-08-03T14:05:38.793Z,35.16
2022-08-03T14:08:08.090Z,35.23
2022-08-03T14:10:42.982Z,35.27
2022-08-03T14:13:16.851Z,35.21
2022-08-03T14:15:50.038Z,35.24
2022-08-03T14:18:28.535Z,35.29
2022-08-03T14:21:06.921Z,35.40
2022-08-03T14:23:37.811Z,35.46
2022-08-03T14:26:07.877Z,35.57
2022-08-03T14:28:36.577Z,35.68
2022-08-03T14:31:04.673Z,35.71
2022-08-03T14:33:36.367Z,35.69
2022-08-03T14:36:04.970Z,35.75
2022-08-03T14:38:32.704Z,35.84
2022-08-03T14:41:00.249Z,35.91
2022-08-03T14:43:33.820Z,35.92
2022-08-03T14:46:01.896Z,35.93
2022-08-03T14:50:29.670Z,35.93
2022-08-03T14:51:17.361Z,35.85
2022-08-03T14:53:46.278Z,35.84
2022-08-03T14:56:13.793Z,35.81
2022-08-03T14:58:41.376Z,35.78
2022-08-03T15:02:02.651Z,35.74
2022-08-03T15:03:56.810Z,35.80
2022-08-03T15:06:24.675Z,35.87
2022-08-03T15:09:13.861Z,35.85
2022-08-03T15:11:40.449Z,35.95
2022-08-03T15:14:09.594Z,36.09
2022-08-03T15:16:38.898Z,36.27
2022-08-03T15:20:04.061Z,36.46
2022-08-03T15:21:56.114Z,36.73
2022-08-03T15:24:23.879Z,36.83
2022-08-03T15:26:52.771Z,36.87
2022-08-03T15:30:05.573Z,36.79
2022-08-03T15:32:09.579Z,36.64
2022-08-03T15:34:37.298Z,36.51
2022-08-03T15:37:12.749Z,36.53
2022-08-03T15:39:59.558Z,36.41
2022-08-03T15:42:30.234Z,36.30
2022-08-03T15:44:58.591Z,36.25
2022-08-03T15:47:26.553Z,36.19
2022-08-03T15:49:54.153Z,36.05
2022-08-03T15:52:21.996Z,35.99
2022-08-03T15:54:49.562Z,35.97
2022-08-03T15:57:17.274Z,35.93
2022-08-03T15:59:45.121Z,35.85
2022-08-03T16:02:12.678Z,35.84
2022-08-03T16:04:40.258Z,35.81
2022-08-03T16:07:08.828Z,35.87
2022-08-03T16:09:42.069Z,35.95
2022-08-03T16:12:16.277Z,36.03
2022-08-03T16:14:52.852Z,36.08
2022-08-03T16:17:22.603Z,36.18
2022-08-03T16:19:54.855Z,36.29
2022-08-03T16:22:26.747Z,36.32
2022-08-03T16:24:56.041Z,36.28
2022-08-03T16:27:36.939Z,36.27
2022-08-03T16:30:08.370Z,36.32
2022-08-03T16:32:38.328Z,36.42
2022-08-03T16:35:06.576Z,36.47
2022-08-03T16:37:39.055Z,36.50
2022-08-03T16:40:17.390Z,36.48
2022-08-03T16:42:47.760Z,36.48
2022-08-03T16:45:15.629Z,36.47
2022-08-03T16:47:43.206Z,36.44
2022-08-03T16:50:17.200Z,36.41
2022-08-03T16:52:48.640Z,36.31
2022-08-03T16:55:42.746Z,36.27
2022-08-03T16:58:06.105Z,36.24
2022-08-03T17:00:41.673Z,36.19
2022-08-03T17:03:16.378Z,36.13
2022-08-03T17:05:50.022Z,36.07
2022-08-03T17:08:26.141Z,36.04
2022-08-03T17:10:56.321Z,35.98
2022-08-03T17:13:27.679Z,35.94
2022-08-03T17:16:10.508Z,35.87
2022-08-03T17:19:01.957Z,35.82
2022-08-03T17:21:33.201Z,35.72
2022-08-03T17:24:28.141Z,35.45
2022-08-03T17:26:57.303Z,35.18
2022-08-03T17:29:29.933Z,34.93
2022-08-03T17:31:57.664Z,34.63
2022-08-03T17:34:26.256Z,34.37
2022-08-03T17:37:04.172Z,34.09
2022-08-03T17:39:57.602Z,33.83
2022-08-03T17:42:30.404Z,33.50
2022-08-03T17:45:01.947Z,33.22
2022-08-03T17:47:41.345Z,32.95
2022-08-03T17:50:24.832Z,32.72
2022-08-03T17:53:15.410Z,32.43
2022-08-03T17:56:44.414Z,32.15
2022-08-03T17:59:51.828Z,31.82
2022-08-03T18:03:04.494Z,31.51
2022-08-03T18:06:10.540Z,31.27
2022-08-03T18:08:38.109Z,31.04
2022-08-03T18:11:14.489Z,30.86
2022-08-03T18:14:05.808Z,30.69
2022-08-03T18:17:10.241Z,30.50
2022-08-03T18:20:02.692Z,30.34
2022-08-03T18:22:28.208Z,30.17
2022-08-03T18:25:00.316Z,30.05
2022-08-03T18:27:45.492Z,29.92
2022-08-03T18:30:15.514Z,29.80
2022-08-03T18:33:01.107Z,29.68
2022-08-03T18:35:52.938Z,29.56
2022-08-03T18:38:25.354Z,29.43
2022-08-03T18:40:52.971Z,29.34
2022-08-03T18:43:22.454Z,29.25
2022-08-03T18:46:51.796Z,29.16
2022-08-03T18:49:45.002Z,29.08
2022-08-03T18:52:37.368Z,29.01
2022-08-03T18:55:32.897Z,28.96
2022-08-03T18:58:17.747Z,28.90
2022-08-03T19:01:57.845Z,28.83
2022-08-03T19:04:53.507Z,28.75
2022-08-03T19:07:27.701Z,28.69
2022-08-03T19:10:10.350Z,28.65
2022-08-03T19:12:53.021Z,28.62
2022-08-03T19:15:36.485Z,28.60
2022-08-03T19:18:11.264Z,28.57
2022-08-03T19:20:40.181Z,28.57
2022-08-03T19:23:08.318Z,28.53
2022-08-03T19:25:40.629Z,28.53
2022-08-03T19:28:09.618Z,28.51
2022-08-03T19:30:40.620Z,28.48
2022-08-03T19:33:15.766Z,28.46
2022-08-03T19:35:55.104Z,28.44
2022-08-03T19:38:29.114Z,28.40
2022-08-03T19:41:17.699Z,28.37
2022-08-03T19:44:04.414Z,28.34
2022-08-03T19:46:57.798Z,28.31
2022-08-03T19:50:05.676Z,28.29
2022-08-03T19:52:24.567Z,28.25
2022-08-03T19:55:03.759Z,28.22
2022-08-03T19:57:34.373Z,28.21
2022-08-03T20:00:07.922Z,28.18
2022-08-03T20:02:35.806Z,28.14
2022-08-03T20:05:03.762Z,28.12
2022-08-03T20:07:32.913Z,28.10
2022-08-03T20:10:04.665Z,28.09
2022-08-03T20:12:39.260Z,28.07
2022-08-03T20:15:07.934Z,28.05
2022-08-03T20:17:56.749Z,28.05
2022-08-03T20:20:37.164Z,28.02
2022-08-03T20:23:16.193Z,27.99
2022-08-03T20:25:58.411Z,28.01
2022-08-03T20:28:50.540Z,28.00
2022-08-03T20:31:32.225Z,27.99
2022-08-03T20:34:05.468Z,27.98
2022-08-03T20:36:33.287Z,27.98
2022-08-03T20:39:00.932Z,27.98
2022-08-03T20:41:30.573Z,27.98
2022-08-03T20:43:59.233Z,27.96
2022-08-03T20:46:30.929Z,27.98
2022-08-03T20:49:05.790Z,27.96
2022-08-03T20:51:49.242Z,27.97
2022-08-03T20:54:30.627Z,27.94
2022-08-03T20:57:03.903Z,27.96
2022-08-03T20:59:50.534Z,27.97
2022-08-03T21:02:29.960Z,27.95
2022-08-03T21:05:08.430Z,27.95
2022-08-03T21:08:05.519Z,27.93
2022-08-03T21:10:38.647Z,27.91
2022-08-03T21:13:30.307Z,27.88
2022-08-03T21:16:07.121Z,27.87
2022-08-03T21:18:51.409Z,27.84
2022-08-03T21:21:22.466Z,27.84
2022-08-03T21:23:55.138Z,27.80
2022-08-03T21:26:26.769Z,27.80
2022-08-03T21:28:56.695Z,27.80
2022-08-03T21:31:26.799Z,27.80
2022-08-03T21:34:01.233Z,27.79
2022-08-03T21:36:32.424Z,27.77
2022-08-03T21:39:01.637Z,27.77
2022-08-03T21:41:32.364Z,27.77
2022-08-03T21:44:01.523Z,27.77
2022-08-03T21:46:36.009Z,27.77
2022-08-03T21:50:06.721Z,27.74
2022-08-03T21:51:59.682Z,27.74
2022-08-03T21:54:41.324Z,27.76
2022-08-03T21:57:22.922Z,27.78
2022-08-03T22:00:15.477Z,27.80
2022-08-03T22:02:54.547Z,27.81
2022-08-03T22:05:42.459Z,27.80
2022-08-03T22:08:13.388Z,27.81
2022-08-03T22:10:44.401Z,27.82
2022-08-03T22:13:43.141Z,27.81
2022-08-03T22:16:06.528Z,27.82
2022-08-03T22:18:42.102Z,27.82
2022-08-03T22:21:11.837Z,27.81
2022-08-03T22:23:44.811Z,27.82
2022-08-03T22:26:32.382Z,27.82
2022-08-03T22:29:08.132Z,27.80
2022-08-03T22:31:58.460Z,27.80
2022-08-03T22:34:27.199Z,27.79
2022-08-03T22:37:01.499Z,27.78
2022-08-03T22:39:30.119Z,27.78
2022-08-03T22:41:59.059Z,27.77
2022-08-03T22:44:28.003Z,27.76
2022-08-03T22:46:55.972Z,27.73
2022-08-03T22:49:27.013Z,27.70
2022-08-03T22:51:56.154Z,27.69
2022-08-03T22:54:24.026Z,27.70
2022-08-03T22:56:52.683Z,27.68
2022-08-03T22:59:39.968Z,27.67
2022-08-03T23:02:20.245Z,27.65
2022-08-03T23:05:01.478Z,27.66
2022-08-03T23:07:38.793Z,27.64
2022-08-03T23:10:11.622Z,27.61
2022-08-03T23:12:41.969Z,27.60
2022-08-03T23:15:13.139Z,27.60
2022-08-03T23:18:03.417Z,27.58
2022-08-03T23:20:31.169Z,27.56
2022-08-03T23:22:59.315Z,27.54
2022-08-03T23:25:27.309Z,27.52
2022-08-03T23:28:05.674Z,27.51
2022-08-03T23:30:37.713Z,27.49
2022-08-03T23:33:06.708Z,27.49
2022-08-03T23:36:20.090Z,27.46
2022-08-03T23:38:40.890Z,27.40
2022-08-03T23:41:09.290Z,27.37
2022-08-03T23:43:53.817Z,27.37
2022-08-03T23:46:22.678Z,27.34
2022-08-03T23:48:51.389Z,27.32
2022-08-03T23:51:53.291Z,27.29
2022-08-03T23:55:07.813Z,27.23
2022-08-03T23:58:22.026Z,27.19
